KMGJ/MGJ METAR and TAF weather

Enter ICAO airport designator
Station Type Date Time Source
KMGJ METAR 2021/09/23 16:54 UTC NOAA

KMGJ 231654Z AUTO 16016G24KT 110V180 10SM BKN037 BKN045 25/19 A2991 RMK AO2 SLP124 T02500194


Station Type Date Time Source
KMGJ Decoded METAR 2021/09/23 16:54 UTC NOAA

MONTGOMERY ORANGE CO AIRPORT, NY, United States (KMGJ) 41-31N 074-16W 108M
Sep 23, 2021 - 12:54 PM EDT / 2021.09.23 1654 UTC
Wind: from the SSE (160 degrees) at 18 MPH (16 KT) gusting to 28 MPH (24 KT) (direction variable):0
Visibility: 10 mile(s):0
Sky conditions: mostly cloudy
Temperature: 77.0 F (25.0 C)
Dew Point: 66.9 F (19.4 C)
Relative Humidity: 71%
Pressure (altimeter): 29.91 in. Hg (1012 hPa)
ob: KMGJ 231654Z AUTO 16016G24KT 110V180 10SM BKN037 BKN045 25/19 A2991 RMK AO2 SLP124 T02500194
cycle: 17

Station Type Date Time Source
KMGJ TAF UTC NOAA

Error!

Example: see airport list